Time;durP1;ratioP1;P1;durP2;ratioP2;P2;SDS_P1;SDS_P2;PMS_P1;PMS_P2;Temp;Humidity;BMP_temperature;BMP_pressure;BME280_temperature;BME280_humidity;BME280_pressure;Samples;Min_cycle;Max_cycle;Signal;HPM_P1;HPM_P2
2023/11/05 00:01:27;;;;;;;2.50;0.80;;;10.10;70.70;;;;;;5095248;28;20216;-73
2023/11/05 00:03:54;;;;;;;2.00;0.80;;;10.10;70.30;;;;;;5095488;28;20185;-73
2023/11/05 00:06:21;;;;;;;2.00;0.70;;;10.10;70.10;;;;;;5094734;28;20573;-73
2023/11/05 00:08:48;;;;;;;1.70;0.60;;;10.10;69.90;;;;;;5095377;28;20181;-74
2023/11/05 00:11:15;;;;;;;1.73;0.70;;;10.10;69.50;;;;;;5094966;28;20245;-73
2023/11/05 00:13:42;;;;;;;1.70;0.60;;;10.20;69.60;;;;;;5095233;28;20189;-73
2023/11/05 00:16:10;;;;;;;1.70;0.70;;;10.20;69.20;;;;;;5095336;28;20528;-73
2023/11/05 00:18:37;;;;;;;1.80;0.73;;;10.20;68.50;;;;;;5095248;28;20189;-74
2023/11/05 00:21:07;;;;;;;1.70;0.60;;;10.20;68.10;;;;;;5094861;28;20259;-73
2023/11/05 00:23:34;;;;;;;1.80;0.70;;;10.10;68.60;;;;;;5095190;28;20574;-73
2023/11/05 00:26:01;;;;;;;1.92;1.00;;;10.10;68.60;;;;;;5095047;28;20189;-73
2023/11/05 00:28:28;;;;;;;1.70;0.60;;;10.10;68.10;;;;;;5094925;28;20236;-74
2023/11/05 00:30:55;;;;;;;2.00;0.90;;;10.10;68.10;;;;;;5094408;28;20246;-74
2023/11/05 00:33:23;;;;;;;2.05;0.68;;;10.10;67.80;;;;;;5094862;28;20214;-74
2023/11/05 00:35:50;;;;;;;1.70;0.60;;;10.20;66.70;;;;;;5094378;28;20196;-73
2023/11/05 00:38:17;;;;;;;1.90;0.70;;;10.20;66.20;;;;;;5094745;28;20294;-73
2023/11/05 00:40:45;;;;;;;1.80;0.60;;;10.20;66.40;;;;;;5094646;28;20196;-74
2023/11/05 00:43:12;;;;;;;1.80;0.60;;;10.20;65.60;;;;;;5094572;28;20588;-73
2023/11/05 00:45:39;;;;;;;1.70;0.60;;;10.30;65.40;;;;;;5094244;28;20225;-73
2023/11/05 00:48:06;;;;;;;1.80;0.63;;;10.30;64.70;;;;;;5094455;28;20640;-73
2023/11/05 00:50:34;;;;;;;1.73;0.70;;;10.30;64.60;;;;;;5094505;28;20471;-73
2023/11/05 00:53:01;;;;;;;1.73;0.70;;;10.30;64.90;;;;;;5093253;28;20201;-73
2023/11/05 00:55:28;;;;;;;2.00;0.68;;;10.30;64.30;;;;;;5094099;28;20239;-73
2023/11/05 00:57:55;;;;;;;1.90;0.70;;;10.30;64.20;;;;;;5094428;28;20220;-73
2023/11/05 01:00:23;;;;;;;1.80;0.60;;;10.30;64.20;;;;;;5094235;28;20229;-74
2023/11/05 01:02:50;;;;;;;1.90;0.70;;;10.40;64.10;;;;;;5093250;28;20229;-73
2023/11/05 01:05:17;;;;;;;2.13;0.80;;;10.50;63.90;;;;;;5094248;28;20190;-74
2023/11/05 01:07:45;;;;;;;2.10;0.70;;;10.50;63.50;;;;;;5093485;28;20644;-74
2023/11/05 01:10:12;;;;;;;2.20;0.90;;;10.50;63.60;;;;;;5093962;28;20229;-73
2023/11/05 01:12:40;;;;;;;1.70;0.60;;;10.50;63.70;;;;;;5093822;28;20671;-73
2023/11/05 01:15:07;;;;;;;2.03;0.82;;;10.40;63.70;;;;;;5094115;28;20280;-73
2023/11/05 01:17:35;;;;;;;1.70;0.60;;;10.40;63.60;;;;;;5094165;28;20189;-73
2023/11/05 01:20:02;;;;;;;1.70;0.60;;;10.50;64.00;;;;;;5093851;28;20578;-73
2023/11/05 01:22:29;;;;;;;1.80;0.70;;;10.50;63.90;;;;;;5094086;28;20227;-73
2023/11/05 01:24:58;;;;;;;2.13;0.70;;;10.40;63.70;;;;;;5094250;28;20251;-73
2023/11/05 01:27:25;;;;;;;1.70;0.50;;;10.50;64.00;;;;;;5093664;28;20189;-74
2023/11/05 01:29:52;;;;;;;2.88;0.80;;;10.50;64.10;;;;;;5093970;28;20284;-73
2023/11/05 01:32:19;;;;;;;1.90;0.60;;;10.50;63.20;;;;;;5093816;28;20266;-73
2023/11/05 01:34:46;;;;;;;1.80;0.60;;;10.50;63.30;;;;;;5093943;28;20232;-73
2023/11/05 01:37:13;;;;;;;2.90;0.98;;;10.50;63.40;;;;;;5093041;28;20636;-73
2023/11/05 01:39:40;;;;;;;2.25;0.65;;;10.50;63.40;;;;;;5094097;28;20205;-73
2023/11/05 01:42:09;;;;;;;2.10;0.60;;;10.50;63.60;;;;;;5093853;28;20587;-73
2023/11/05 01:44:37;;;;;;;1.90;0.82;;;10.50;63.10;;;;;;5093699;28;20220;-73
2023/11/05 01:47:05;;;;;;;1.70;0.70;;;10.50;63.00;;;;;;5093464;28;20229;-73
2023/11/05 01:49:32;;;;;;;1.80;0.60;;;10.50;63.40;;;;;;5093416;28;20636;-73
2023/11/05 01:52:00;;;;;;;1.80;0.70;;;10.40;63.20;;;;;;5092862;28;20205;-73
2023/11/05 01:54:27;;;;;;;2.17;0.80;;;10.30;63.50;;;;;;5093407;28;20189;-73
2023/11/05 01:56:55;;;;;;;1.80;0.80;;;10.40;63.80;;;;;;5093621;28;20232;-73
2023/11/05 01:59:23;;;;;;;2.75;0.82;;;10.40;63.70;;;;;;5093582;28;20258;-73
2023/11/05 02:01:52;;;;;;;2.80;1.40;;;10.40;63.00;;;;;;5093629;28;20219;-73
2023/11/05 02:04:19;;;;;;;2.30;0.90;;;10.30;63.40;;;;;;5093586;28;20576;-73
2023/11/05 02:06:47;;;;;;;2.05;0.80;;;10.30;64.20;;;;;;5092776;28;20306;-74
2023/11/05 02:09:14;;;;;;;1.77;0.70;;;10.30;65.20;;;;;;5093721;28;20189;-73
2023/11/05 02:11:41;;;;;;;2.17;0.70;;;10.20;65.90;;;;;;5093437;28;20193;-74
2023/11/05 02:14:13;;;;;;;2.08;0.88;;;10.20;66.40;;;;;;5096638;28;20201;-74
2023/11/05 02:16:41;;;;;;;1.80;0.70;;;10.20;66.60;;;;;;5097191;28;20231;-74
2023/11/05 02:19:09;;;;;;;1.80;0.75;;;10.20;66.70;;;;;;5097252;28;20186;-73
2023/11/05 02:21:41;;;;;;;2.20;0.70;;;10.20;66.80;;;;;;5096318;28;20185;-73
2023/11/05 02:24:10;;;;;;;2.42;0.70;;;10.20;66.20;;;;;;5096369;28;20506;-74
2023/11/05 02:26:37;;;;;;;1.80;0.60;;;10.10;66.30;;;;;;5097470;28;20225;-73
2023/11/05 02:29:04;;;;;;;2.10;1.10;;;10.10;66.60;;;;;;5096860;28;20248;-73
2023/11/05 02:31:31;;;;;;;2.03;0.70;;;10.10;66.90;;;;;;5095984;28;20207;-73
2023/11/05 02:33:58;;;;;;;1.70;0.60;;;10.00;67.10;;;;;;5096614;28;20209;-75
2023/11/05 02:36:26;;;;;;;1.80;0.60;;;10.00;67.20;;;;;;5097212;28;20189;-73
2023/11/05 02:38:53;;;;;;;2.10;0.77;;;9.90;68.90;;;;;;5096994;28;20651;-74
2023/11/05 02:41:21;;;;;;;2.00;0.80;;;9.90;68.60;;;;;;5096678;28;20194;-73
2023/11/05 02:43:49;;;;;;;2.75;0.80;;;9.90;69.10;;;;;;5096896;28;20232;-73
2023/11/05 02:46:16;;;;;;;2.45;0.80;;;9.70;69.20;;;;;;5096591;28;20182;-73
2023/11/05 02:48:43;;;;;;;4.60;0.75;;;9.70;69.80;;;;;;5096617;28;20194;-73
2023/11/05 02:51:11;;;;;;;1.98;0.77;;;9.60;70.30;;;;;;5096926;28;20190;-73
2023/11/05 02:53:37;;;;;;;1.90;0.70;;;9.50;70.80;;;;;;5096793;28;20253;-73
2023/11/05 02:56:05;;;;;;;1.75;0.73;;;9.50;71.30;;;;;;5096479;28;20189;-73
2023/11/05 02:58:34;;;;;;;2.00;0.80;;;9.40;70.80;;;;;;5096381;28;20242;-73
2023/11/05 03:01:01;;;;;;;2.30;0.80;;;9.30;70.10;;;;;;5095043;28;20231;-73
2023/11/05 03:03:29;;;;;;;2.83;0.70;;;9.20;70.80;;;;;;5096351;28;20204;-73
2023/11/05 03:05:56;;;;;;;1.80;0.75;;;9.10;71.50;;;;;;5096218;28;20662;-73
2023/11/05 03:08:23;;;;;;;2.00;0.80;;;9.00;72.00;;;;;;5096726;28;20189;-73
2023/11/05 03:10:50;;;;;;;2.00;0.90;;;8.90;72.50;;;;;;5096500;28;20186;-73
2023/11/05 03:13:17;;;;;;;1.90;0.80;;;8.90;72.80;;;;;;5096615;28;20209;-73
2023/11/05 03:15:45;;;;;;;2.17;0.80;;;8.80;73.00;;;;;;5096421;28;20194;-73
2023/11/05 03:18:13;;;;;;;2.70;0.80;;;8.70;73.60;;;;;;5095635;28;20269;-73
2023/11/05 03:20:40;;;;;;;1.70;0.60;;;8.60;74.20;;;;;;5095937;28;20213;-73
2023/11/05 03:23:07;;;;;;;1.90;0.75;;;8.50;73.70;;;;;;5096309;28;20189;-73
2023/11/05 03:25:36;;;;;;;1.80;0.70;;;8.40;73.50;;;;;;5095451;28;20234;-73
2023/11/05 03:28:04;;;;;;;1.70;0.57;;;8.40;73.90;;;;;;5095849;28;20276;-73
2023/11/05 03:30:31;;;;;;;1.88;0.75;;;8.30;73.50;;;;;;5096072;28;20590;-73
2023/11/05 03:32:59;;;;;;;2.05;0.80;;;8.20;74.20;;;;;;5095678;28;20221;-73
2023/11/05 03:35:26;;;;;;;2.20;0.80;;;8.20;75.10;;;;;;5095716;28;20231;-73
2023/11/05 03:37:53;;;;;;;2.00;0.80;;;8.20;75.60;;;;;;5095301;28;20228;-73
2023/11/05 03:40:20;;;;;;;2.25;0.93;;;8.10;75.60;;;;;;5095911;28;20185;-73
2023/11/05 03:42:50;;;;;;;15.57;10.05;;;8.10;76.00;;;;;;5095547;28;20232;-73
2023/11/05 03:45:17;;;;;;;6.20;4.00;;;8.10;76.10;;;;;;5095785;28;20267;-73
2023/11/05 03:47:44;;;;;;;3.80;1.63;;;8.10;76.40;;;;;;5095223;28;20194;-73
2023/11/05 03:50:12;;;;;;;2.17;1.20;;;8.00;76.60;;;;;;5095444;28;20232;-73
2023/11/05 03:52:40;;;;;;;2.00;0.80;;;8.00;77.20;;;;;;5095612;28;20258;-73
2023/11/05 03:55:07;;;;;;;2.88;0.70;;;8.00;77.30;;;;;;5095681;28;20247;-73
2023/11/05 03:57:36;;;;;;;4.05;0.90;;;7.90;77.20;;;;;;5095296;28;20193;-73
2023/11/05 04:00:05;;;;;;;1.92;0.75;;;7.90;76.90;;;;;;5095171;28;20647;-73
2023/11/05 04:02:32;;;;;;;2.20;0.80;;;8.00;76.40;;;;;;5095434;28;20209;-73
2023/11/05 04:04:59;;;;;;;2.00;0.80;;;8.00;76.10;;;;;;5095145;28;20640;-73
2023/11/05 04:07:27;;;;;;;1.80;0.70;;;8.00;76.00;;;;;;5095418;28;20190;-73
2023/11/05 04:09:54;;;;;;;2.47;0.80;;;8.00;75.80;;;;;;5095324;28;20602;-73
2023/11/05 04:12:23;;;;;;;3.40;1.10;;;7.90;75.10;;;;;;5094242;28;20190;-73
2023/11/05 04:14:50;;;;;;;2.05;0.75;;;7.80;75.00;;;;;;5095163;28;20186;-73
2023/11/05 04:17:17;;;;;;;1.98;0.88;;;7.70;74.30;;;;;;5094917;28;20228;-73
2023/11/05 04:19:54;;;;;;;2.55;0.90;;;7.60;74.50;;;;;;5094760;28;20687;-73
2023/11/05 04:22:21;;;;;;;2.92;1.15;;;7.50;75.00;;;;;;5095147;28;20188;-73
2023/11/05 04:24:49;;;;;;;2.00;0.90;;;7.50;75.50;;;;;;5094568;28;20186;-73
2023/11/05 04:27:17;;;;;;;2.15;1.17;;;7.50;75.90;;;;;;5094698;28;20271;-73
2023/11/05 04:29:45;;;;;;;2.72;1.20;;;7.50;76.40;;;;;;5094921;28;20193;-73
2023/11/05 04:32:13;;;;;;;3.08;1.08;;;7.40;76.60;;;;;;5094953;28;20189;-73
2023/11/05 04:34:40;;;;;;;2.92;2.13;;;7.40;76.90;;;;;;5094437;28;20306;-74
2023/11/05 04:37:07;;;;;;;3.05;1.10;;;7.30;76.80;;;;;;5094490;28;20190;-73
2023/11/05 04:39:35;;;;;;;2.80;1.35;;;7.30;76.30;;;;;;5093865;28;20272;-73
2023/11/05 04:42:06;;;;;;;5.82;1.10;;;7.30;76.20;;;;;;5094781;28;20190;-73
2023/11/05 04:44:37;;;;;;;19.42;9.98;;;7.20;76.60;;;;;;5094867;28;20181;-73
2023/11/05 04:47:04;;;;;;;7.18;3.75;;;7.20;76.70;;;;;;5094266;28;20221;-74
2023/11/05 04:49:31;;;;;;;6.57;3.50;;;7.10;76.90;;;;;;5094258;28;20186;-73
2023/11/05 04:51:58;;;;;;;3.78;1.98;;;7.10;77.10;;;;;;5094269;28;20193;-73
2023/11/05 04:54:25;;;;;;;3.97;1.55;;;7.00;77.60;;;;;;5094522;28;20258;-73
2023/11/05 04:56:52;;;;;;;4.00;1.40;;;7.00;78.10;;;;;;5094171;28;20676;-73
2023/11/05 04:59:21;;;;;;;2.15;1.05;;;6.90;78.20;;;;;;5094063;28;20643;-73
2023/11/05 05:01:48;;;;;;;2.10;0.90;;;6.90;78.30;;;;;;5094381;28;20193;-73
2023/11/05 05:04:15;;;;;;;2.10;0.80;;;6.90;78.60;;;;;;5094001;28;20197;-73
2023/11/05 05:06:43;;;;;;;2.00;0.80;;;6.90;79.00;;;;;;5093971;28;20639;-73
2023/11/05 05:09:11;;;;;;;3.65;0.70;;;6.90;79.10;;;;;;5094296;28;20193;-74
2023/11/05 05:11:38;;;;;;;2.70;0.90;;;7.00;79.80;;;;;;5094278;28;20648;-73
2023/11/05 05:14:05;;;;;;;2.65;0.95;;;7.10;79.70;;;;;;5093885;28;20599;-73
2023/11/05 05:16:34;;;;;;;3.33;1.30;;;7.10;79.80;;;;;;5093725;28;20189;-73
2023/11/05 05:19:01;;;;;;;3.45;1.35;;;7.20;79.90;;;;;;5094077;28;20583;-73
2023/11/05 05:21:28;;;;;;;3.05;1.50;;;7.20;79.60;;;;;;5093800;28;20673;-73
2023/11/05 05:23:55;;;;;;;2.42;1.17;;;7.20;79.60;;;;;;5093518;28;20247;-73
2023/11/05 05:26:22;;;;;;;2.50;0.95;;;7.20;79.30;;;;;;5093978;28;20189;-73
2023/11/05 05:28:49;;;;;;;2.30;1.00;;;7.20;79.30;;;;;;5093580;28;20234;-73
2023/11/05 05:31:16;;;;;;;2.47;1.13;;;7.20;79.30;;;;;;5093968;28;20232;-73
2023/11/05 05:33:45;;;;;;;2.17;0.90;;;7.20;79.40;;;;;;5093867;28;20579;-73
2023/11/05 05:36:12;;;;;;;2.00;0.85;;;7.20;80.00;;;;;;5093531;28;20651;-73
2023/11/05 05:38:39;;;;;;;2.60;1.17;;;7.20;80.70;;;;;;5093849;28;20204;-73
2023/11/05 05:41:06;;;;;;;2.42;1.10;;;7.30;80.30;;;;;;5093788;28;20185;-73
2023/11/05 05:43:33;;;;;;;2.10;0.80;;;7.30;79.20;;;;;;5094078;28;20531;-73
2023/11/05 05:46:02;;;;;;;2.40;0.98;;;7.30;79.40;;;;;;5093686;28;20193;-73
2023/11/05 05:48:31;;;;;;;2.30;0.90;;;7.20;79.80;;;;;;5092929;28;20200;-73
2023/11/05 05:50:59;;;;;;;1.80;0.70;;;7.30;80.10;;;;;;5093754;28;20193;-74
2023/11/05 05:53:26;;;;;;;2.05;1.00;;;7.40;80.10;;;;;;5093592;28;20618;-73
2023/11/05 05:55:56;;;;;;;2.05;1.00;;;7.40;80.20;;;;;;5093674;28;20189;-73
2023/11/05 05:58:23;;;;;;;1.98;0.90;;;7.50;80.10;;;;;;5093911;28;20270;-73
2023/11/05 06:00:50;;;;;;;2.17;1.00;;;7.50;80.00;;;;;;5093479;28;20639;-73
2023/11/05 06:03:18;;;;;;;1.90;0.70;;;7.50;79.80;;;;;;5093416;28;20197;-73
2023/11/05 06:05:45;;;;;;;2.40;1.00;;;7.50;79.20;;;;;;5093538;28;20221;-73
2023/11/05 06:08:14;;;;;;;1.90;0.70;;;7.50;78.80;;;;;;5093311;28;20194;-73
2023/11/05 06:10:41;;;;;;;2.65;0.95;;;7.50;79.00;;;;;;5093127;28;20193;-73
2023/11/05 06:13:08;;;;;;;2.65;1.00;;;7.50;78.90;;;;;;5093312;28;20271;-74
2023/11/05 06:15:36;;;;;;;3.25;0.90;;;7.50;79.10;;;;;;5092630;28;20189;-73
2023/11/05 06:18:03;;;;;;;2.10;1.00;;;7.60;79.20;;;;;;5092825;28;20200;-73
2023/11/05 06:20:30;;;;;;;2.25;0.90;;;7.60;78.80;;;;;;5092888;28;20320;-73
2023/11/05 06:22:57;;;;;;;5.82;3.17;;;7.70;77.70;;;;;;5092815;28;20235;-73
2023/11/05 06:25:26;;;;;;;5.85;3.53;;;7.70;77.10;;;;;;5093294;28;20185;-73
2023/11/05 06:27:54;;;;;;;4.80;3.40;;;7.70;77.10;;;;;;5093241;28;20235;-73
2023/11/05 06:30:21;;;;;;;5.63;2.80;;;7.80;77.70;;;;;;5092672;28;20232;-73
2023/11/05 06:32:48;;;;;;;4.57;2.10;;;8.00;78.30;;;;;;5093169;28;20243;-73
2023/11/05 06:35:15;;;;;;;3.78;2.30;;;8.10;78.20;;;;;;5092920;28;20213;-73
2023/11/05 06:37:42;;;;;;;4.70;1.40;;;8.20;78.10;;;;;;5093145;28;20189;-73
2023/11/05 06:40:10;;;;;;;2.63;1.13;;;8.20;77.90;;;;;;5092993;28;20201;-73
2023/11/05 06:42:39;;;;;;;3.10;1.40;;;8.30;78.70;;;;;;5092740;28;20193;-74
2023/11/05 06:45:08;;;;;;;2.20;1.20;;;8.60;79.00;;;;;;5093158;28;20575;-73
2023/11/05 06:47:35;;;;;;;2.53;0.90;;;8.70;78.10;;;;;;5092686;28;20196;-73
2023/11/05 06:50:04;;;;;;;2.38;1.02;;;8.80;77.60;;;;;;5093203;28;20193;-73
2023/11/05 06:52:31;;;;;;;2.22;0.73;;;8.80;77.20;;;;;;5092707;28;20224;-74
2023/11/05 06:54:58;;;;;;;2.00;0.80;;;8.80;77.20;;;;;;5092846;28;20202;-73
2023/11/05 06:57:25;;;;;;;1.90;0.70;;;8.80;77.10;;;;;;5092834;28;20246;-73
2023/11/05 06:59:53;;;;;;;2.70;1.20;;;8.90;74.50;;;;;;5093337;28;20199;-74
2023/11/05 07:02:20;;;;;;;2.42;1.05;;;9.00;73.80;;;;;;5096064;28;20232;-73
2023/11/05 07:04:47;;;;;;;2.28;0.85;;;9.00;74.50;;;;;;5096396;28;20190;-73
2023/11/05 07:07:15;;;;;;;2.00;0.70;;;9.00;74.80;;;;;;5094007;28;20197;-74
2023/11/05 07:09:42;;;;;;;2.10;1.10;;;9.20;74.60;;;;;;5093950;28;20239;-73
2023/11/05 07:12:12;;;;;;;2.20;1.00;;;9.30;74.80;;;;;;5094549;28;20185;-73
2023/11/05 07:14:40;;;;;;;1.90;0.98;;;9.40;74.70;;;;;;5073075;28;20221;-73
2023/11/05 07:17:08;;;;;;;2.15;1.10;;;9.60;74.40;;;;;;5083206;28;20190;-74
2023/11/05 07:19:36;;;;;;;2.10;0.98;;;10.10;73.90;;;;;;5094569;28;20217;-74
2023/11/05 07:22:03;;;;;;;2.13;1.00;;;10.80;73.60;;;;;;5094999;28;20192;-73
2023/11/05 07:24:31;;;;;;;2.75;0.90;;;11.20;70.90;;;;;;5095169;28;20181;-73
2023/11/05 07:26:59;;;;;;;2.30;0.95;;;11.20;68.80;;;;;;5094371;28;20181;-74
2023/11/05 07:29:26;;;;;;;3.95;1.10;;;11.10;67.90;;;;;;5095181;28;20242;-73
2023/11/05 07:31:54;;;;;;;2.00;0.90;;;11.00;67.90;;;;;;5095200;28;20201;-73
2023/11/05 07:34:23;;;;;;;2.72;1.30;;;10.90;65.70;;;;;;5094595;28;20575;-74
2023/11/05 07:36:50;;;;;;;2.20;1.13;;;10.80;65.70;;;;;;5094717;28;20189;-73
2023/11/05 07:39:18;;;;;;;3.75;1.60;;;10.80;66.30;;;;;;5095353;28;20205;-73
2023/11/05 07:41:45;;;;;;;2.20;1.25;;;10.70;67.20;;;;;;5095086;28;20196;-73
2023/11/05 07:44:13;;;;;;;2.50;1.50;;;10.80;67.40;;;;;;5094673;28;20219;-73
2023/11/05 07:46:40;;;;;;;31.75;16.02;;;10.70;67.60;;;;;;5095041;28;20485;-73
2023/11/05 07:49:07;;;;;;;20.58;10.65;;;10.60;67.30;;;;;;5094026;28;20186;-73
2023/11/05 07:51:37;;;;;;;15.48;9.27;;;10.60;67.80;;;;;;5094106;28;20195;-73
2023/11/05 07:54:05;;;;;;;4.47;2.70;;;10.60;68.30;;;;;;5094018;28;20259;-74
2023/11/05 07:56:32;;;;;;;4.38;2.10;;;10.60;66.80;;;;;;5094355;28;20254;-73
2023/11/05 07:59:03;;;;;;;8.68;6.10;;;10.60;66.50;;;;;;5094118;28;20195;-73
2023/11/05 08:01:36;;;;;;;5.15;3.33;;;10.70;67.10;;;;;;5093719;28;20186;-74
2023/11/05 08:04:04;;;;;;;5.70;2.72;;;10.70;67.30;;;;;;5094304;28;20701;-73
2023/11/05 08:06:37;;;;;;;8.07;4.80;;;10.80;65.80;;;;;;5094245;28;20196;-73
2023/11/05 08:09:04;;;;;;;6.20;4.00;;;10.80;66.50;;;;;;5093796;28;20178;-73
2023/11/05 08:11:34;;;;;;;6.38;3.95;;;10.90;67.50;;;;;;5093380;28;20185;-73
2023/11/05 08:14:01;;;;;;;9.50;4.07;;;11.30;68.10;;;;;;5093813;28;20718;-74
2023/11/05 08:16:32;;;;;;;5.15;3.28;;;11.90;68.50;;;;;;5093990;28;20197;-74
2023/11/05 08:18:59;;;;;;;4.17;2.23;;;12.80;67.30;;;;;;5093944;28;20272;-74
2023/11/05 08:21:26;;;;;;;4.17;2.70;;;13.80;64.00;;;;;;5094007;28;20541;-75
2023/11/05 08:23:57;;;;;;;3.13;1.13;;;14.90;59.40;;;;;;5094042;28;20444;-74
2023/11/05 08:26:24;;;;;;;3.37;1.10;;;15.80;57.30;;;;;;5093297;28;20463;-74
2023/11/05 08:28:54;;;;;;;2.80;1.00;;;16.80;54.50;;;;;;5093464;28;20514;-75
2023/11/05 08:31:21;;;;;;;2.27;0.87;;;17.50;50.50;;;;;;5093809;28;20468;-75
2023/11/05 08:33:49;;;;;;;2.00;0.90;;;17.50;46.80;;;;;;5093199;28;20896;-75
2023/11/05 08:36:16;;;;;;;2.27;0.77;;;17.00;46.80;;;;;;5093323;28;20870;-74
2023/11/05 08:38:43;;;;;;;2.80;0.90;;;16.50;47.40;;;;;;5093950;28;20467;-74
2023/11/05 08:41:12;;;;;;;1.90;0.70;;;16.30;48.00;;;;;;5094034;28;20435;-74
2023/11/05 08:43:39;;;;;;;2.10;0.90;;;16.20;47.00;;;;;;5092776;28;20543;-75
2023/11/05 08:46:07;;;;;;;2.50;1.20;;;16.00;47.90;;;;;;5093974;28;20427;-74
2023/11/05 08:48:34;;;;;;;2.23;1.00;;;15.80;46.80;;;;;;5093825;28;20772;-74
2023/11/05 08:51:04;;;;;;;2.33;1.17;;;15.60;47.70;;;;;;5093371;28;20428;-74
2023/11/05 08:53:31;;;;;;;2.90;1.50;;;15.50;47.90;;;;;;5093542;28;20427;-74
2023/11/05 08:55:59;;;;;;;2.90;1.27;;;15.30;47.50;;;;;;5093252;28;20976;-74
2023/11/05 08:58:28;;;;;;;2.70;1.40;;;15.00;47.80;;;;;;5093151;28;20427;-74
2023/11/05 09:00:56;;;;;;;2.20;1.00;;;14.80;48.90;;;;;;5092969;28;20435;-74
2023/11/05 09:03:24;;;;;;;2.17;1.20;;;14.70;49.50;;;;;;5092877;28;20431;-74
2023/11/05 09:05:54;;;;;;;2.30;0.93;;;14.50;50.10;;;;;;5093349;28;20526;-75
2023/11/05 09:08:22;;;;;;;2.80;1.17;;;14.40;51.00;;;;;;5093048;28;20949;-74
2023/11/05 09:10:49;;;;;;;2.23;1.00;;;14.40;51.80;;;;;;5093040;28;20561;-74
2023/11/05 09:13:19;;;;;;;2.10;1.03;;;14.50;50.60;;;;;;5092747;28;20510;-75
2023/11/05 09:15:49;;;;;;;2.10;0.97;;;14.80;51.30;;;;;;5093278;28;20860;-74
2023/11/05 09:18:31;;;;;;;2.47;1.07;;;15.30;51.40;;;;;;5092977;28;20419;-75
2023/11/05 09:21:00;;;;;;;2.63;0.87;;;15.40;50.70;;;;;;5093134;28;20559;-74
2023/11/05 09:23:27;;;;;;;5.40;1.50;;;15.20;50.80;;;;;;5092367;28;20763;-74
2023/11/05 09:25:55;;;;;;;3.17;1.33;;;15.10;50.70;;;;;;5093240;28;20436;-74
2023/11/05 09:28:29;;;;;;;3.17;1.50;;;15.00;51.10;;;;;;5092832;28;20427;-74
2023/11/05 09:30:59;;;;;;;3.30;1.40;;;15.10;51.70;;;;;;5093026;28;20416;-74
2023/11/05 09:33:29;;;;;;;2.63;1.37;;;15.30;51.80;;;;;;5093056;28;20415;-74
2023/11/05 09:35:57;;;;;;;2.27;1.13;;;15.80;52.10;;;;;;5092747;28;20471;-74
2023/11/05 09:38:27;;;;;;;2.00;0.80;;;16.80;51.60;;;;;;5092480;28;20502;-75
2023/11/05 09:40:55;;;;;;;2.23;0.73;;;17.10;49.50;;;;;;5091515;28;20428;-75
2023/11/05 09:43:23;;;;;;;2.10;0.60;;;17.00;46.10;;;;;;5092266;28;20439;-74
2023/11/05 09:45:51;;;;;;;1.83;0.70;;;16.80;43.50;;;;;;5092827;28;20443;-74
2023/11/05 09:48:23;;;;;;;2.00;0.80;;;16.60;43.60;;;;;;5092028;28;20462;-74
2023/11/05 09:50:53;;;;;;;2.73;1.13;;;16.40;43.40;;;;;;5093362;28;20465;-74
2023/11/05 09:53:28;;;;;;;1.80;0.70;;;16.20;42.90;;;;;;5091860;28;20439;-74
2023/11/05 09:55:55;;;;;;;1.90;0.60;;;16.10;43.60;;;;;;5091886;28;20454;-74
2023/11/05 09:58:23;;;;;;;2.57;0.90;;;16.10;44.60;;;;;;5091948;28;20436;-75
2023/11/05 10:00:51;;;;;;;6.70;0.87;;;16.10;45.60;;;;;;5091751;28;20440;-76
2023/11/05 10:03:21;;;;;;;2.27;0.83;;;16.00;46.30;;;;;;5095947;28;20501;-74
2023/11/05 10:05:48;;;;;;;2.43;0.90;;;16.00;46.70;;;;;;5096238;28;20481;-74
2023/11/05 10:08:17;;;;;;;2.60;0.90;;;15.80;47.90;;;;;;5095268;28;20813;-74
2023/11/05 10:10:45;;;;;;;3.30;0.60;;;15.60;48.60;;;;;;5081727;28;20436;-75
2023/11/05 10:13:12;;;;;;;2.10;0.83;;;15.50;48.70;;;;;;5091487;28;20443;-75
2023/11/05 10:15:41;;;;;;;1.80;0.63;;;15.80;48.40;;;;;;5092034;28;20550;-75
2023/11/05 10:18:13;;;;;;;2.50;0.60;;;16.80;48.60;;;;;;5090829;28;20431;-75
2023/11/05 10:20:50;;;;;;;1.67;0.50;;;17.80;46.90;;;;;;5091839;28;21014;-76
2023/11/05 10:23:18;;;;;;;1.90;0.60;;;18.20;43.90;;;;;;5092628;28;20834;-75
2023/11/05 10:25:50;;;;;;;1.70;0.50;;;18.20;43.60;;;;;;5092511;28;20446;-75
2023/11/05 10:28:18;;;;;;;1.93;0.60;;;17.80;43.50;;;;;;5092230;28;20515;-75
2023/11/05 10:30:48;;;;;;;2.00;0.60;;;17.40;44.50;;;;;;5093388;28;20489;-75
2023/11/05 10:33:16;;;;;;;2.30;0.53;;;17.40;44.20;;;;;;5092422;28;20427;-75
2023/11/05 10:35:44;;;;;;;3.07;0.70;;;17.10;44.60;;;;;;5095724;28;20552;-75
2023/11/05 10:38:18;;;;;;;1.83;0.60;;;17.10;45.40;;;;;;5096302;28;20930;-75
2023/11/05 10:40:47;;;;;;;1.73;0.50;;;17.60;45.30;;;;;;5106753;28;20947;-76
2023/11/05 10:43:15;;;;;;;1.80;0.60;;;18.40;43.10;;;;;;5094251;28;21250;-75
2023/11/05 10:45:43;;;;;;;1.80;0.60;;;18.80;44.30;;;;;;5094860;28;20933;-75
2023/11/05 10:48:10;;;;;;;1.70;0.50;;;20.00;41.60;;;;;;5094852;28;20942;-75
2023/11/05 10:50:39;;;;;;;1.80;0.50;;;22.60;38.70;;;;;;5092535;28;21002;-75
2023/11/05 10:53:08;;;;;;;1.90;0.50;;;25.10;35.40;;;;;;5095661;28;20515;-76
2023/11/05 10:55:37;;;;;;;1.80;0.50;;;26.00;32.60;;;;;;5095004;28;20525;-77
2023/11/05 10:58:06;;;;;;;1.60;0.40;;;27.70;29.40;;;;;;5095309;28;20516;-77
2023/11/05 11:00:47;;;;;;;1.70;0.47;;;30.30;27.50;;;;;;5095871;28;20460;-77
2023/11/05 11:03:14;;;;;;;1.80;0.50;;;32.90;23.30;;;;;;5095175;28;20441;-77
2023/11/05 11:06:00;;;;;;;1.90;0.70;;;34.50;20.20;;;;;;5095368;28;20496;-77
2023/11/05 11:08:30;;;;;;;1.90;0.60;;;34.60;19.10;;;;;;5095611;28;20431;-76
2023/11/05 11:11:15;;;;;;;1.70;0.50;;;33.80;18.80;;;;;;5093529;28;20443;-77
2023/11/05 11:13:49;;;;;;;1.90;0.50;;;33.80;20.00;;;;;;5094875;28;20878;-78
2023/11/05 11:16:24;;;;;;;1.70;0.50;;;34.90;19.30;;;;;;5093351;28;20524;-77
2023/11/05 11:18:54;;;;;;;1.80;0.50;;;36.40;16.80;;;;;;5093656;28;20438;-77
2023/11/05 11:21:22;;;;;;;1.80;0.50;;;37.50;15.50;;;;;;5094525;28;20474;-78
2023/11/05 11:23:50;;;;;;;1.97;0.70;;;38.60;15.60;;;;;;5096417;28;20477;-78
2023/11/05 11:26:25;;;;;;;5.17;0.77;;;39.40;14.70;;;;;;5115747;28;20454;-78
2023/11/05 11:28:57;;;;;;;2.00;0.60;;;40.00;13.10;;;;;;5098175;28;20434;-79
2023/11/05 11:31:26;;;;;;;2.83;0.60;;;40.10;12.70;;;;;;5092728;28;20479;-78
2023/11/05 11:34:00;;;;;;;1.73;0.50;;;40.40;12.40;;;;;;5095161;28;20433;-77
2023/11/05 11:36:27;;;;;;;1.80;0.60;;;41.00;12.40;;;;;;5095152;28;20472;-78
2023/11/05 11:38:55;;;;;;;2.03;0.60;;;41.40;11.80;;;;;;5094676;28;20439;-77
2023/11/05 11:41:33;;;;;;;1.80;0.53;;;39.30;11.30;;;;;;5094376;28;20439;-76
2023/11/05 11:44:01;;;;;;;1.90;0.60;;;36.20;12.80;;;;;;5094900;28;20516;-76
2023/11/05 11:46:31;;;;;;;5.40;0.60;;;33.80;14.60;;;;;;5093584;28;20520;-76
2023/11/05 11:49:09;;;;;;;1.90;0.53;;;32.20;16.10;;;;;;5094697;28;20431;-77
2023/11/05 11:51:36;;;;;;;1.70;0.50;;;32.20;17.70;;;;;;5093928;28;20930;-76
2023/11/05 11:54:06;;;;;;;2.17;0.60;;;32.70;16.90;;;;;;5092790;28;20426;-76
2023/11/05 11:56:35;;;;;;;2.00;0.70;;;34.10;16.10;;;;;;5091487;28;20446;-77
2023/11/05 11:59:06;;;;;;;1.83;0.50;;;35.80;15.20;;;;;;5093690;28;20444;-77
2023/11/05 12:01:38;;;;;;;3.03;0.60;;;37.30;13.60;;;;;;5094472;28;20436;-77
2023/11/05 12:04:07;;;;;;;1.90;0.60;;;38.20;13.20;;;;;;5094273;28;20506;-77
2023/11/05 12:06:38;;;;;;;2.00;0.60;;;37.00;12.70;;;;;;5093760;28;20551;-77
2023/11/05 12:09:05;;;;;;;2.73;0.50;;;35.00;13.60;;;;;;5094444;28;20443;-77
2023/11/05 12:11:35;;;;;;;1.80;0.60;;;35.10;14.10;;;;;;5093968;28;20978;-77
2023/11/05 12:14:06;;;;;;;1.60;0.40;;;35.30;14.00;;;;;;5094203;28;20431;-77
2023/11/05 12:16:36;;;;;;;4.27;0.80;;;36.00;13.50;;;;;;5093892;28;20527;-77
2023/11/05 12:19:05;;;;;;;3.57;0.60;;;36.30;13.30;;;;;;5092215;28;20473;-76
2023/11/05 12:21:33;;;;;;;1.87;0.57;;;34.60;13.40;;;;;;5093707;28;20471;-76
2023/11/05 12:24:03;;;;;;;1.80;0.60;;;33.80;14.40;;;;;;5093804;28;20925;-76
2023/11/05 12:26:30;;;;;;;2.00;0.70;;;33.40;14.70;;;;;;5093439;28;20506;-76
2023/11/05 12:28:58;;;;;;;1.70;0.50;;;32.40;15.20;;;;;;5092660;28;20836;-76
2023/11/05 12:31:28;;;;;;;1.70;0.50;;;31.30;15.70;;;;;;5089659;28;20468;-76
2023/11/05 12:33:56;;;;;;;4.33;0.70;;;30.10;16.40;;;;;;5077951;28;20548;-77
2023/11/05 12:36:23;;;;;;;4.73;0.60;;;29.50;17.80;;;;;;5076664;28;20829;-77
2023/11/05 12:38:52;;;;;;;1.90;0.60;;;30.40;17.50;;;;;;5091116;28;20443;-76
2023/11/05 12:41:19;;;;;;;1.80;0.60;;;31.30;16.70;;;;;;5093412;28;20436;-76
2023/11/05 12:43:46;;;;;;;1.87;0.50;;;31.30;16.50;;;;;;5092874;28;20484;-76
2023/11/05 12:46:14;;;;;;;1.70;0.50;;;30.90;17.00;;;;;;5091667;28;20463;-76
2023/11/05 12:48:45;;;;;;;1.63;0.50;;;31.00;17.20;;;;;;5091688;28;21010;-76
2023/11/05 12:51:12;;;;;;;1.80;0.57;;;31.70;17.20;;;;;;5091562;28;20439;-76
2023/11/05 12:53:39;;;;;;;1.90;0.60;;;31.40;16.40;;;;;;5092956;28;20914;-76
2023/11/05 12:56:09;;;;;;;1.67;0.50;;;31.00;16.90;;;;;;5093222;28;20451;-76